sensor_id;sensor_type;location;lat;lon;timestamp;P1;durP1;ratioP1;P2;durP2;ratioP2
10277;SDS011;5184;51.376;7.148;2023-08-31T00:02:12;7.23;;;5.27;;
10277;SDS011;5184;51.376;7.148;2023-08-31T00:04:39;9.03;;;5.10;;
10277;SDS011;5184;51.376;7.148;2023-08-31T00:07:05;7.03;;;5.00;;
10277;SDS011;5184;51.376;7.148;2023-08-31T00:09:32;7.83;;;5.10;;
10277;SDS011;5184;51.376;7.148;2023-08-31T00:12:01;8.70;;;5.37;;
10277;SDS011;5184;51.376;7.148;2023-08-31T00:14:26;6.57;;;4.60;;
10277;SDS011;5184;51.376;7.148;2023-08-31T00:16:53;8.40;;;5.20;;
10277;SDS011;5184;51.376;7.148;2023-08-31T00:19:20;6.17;;;4.97;;
10277;SDS011;5184;51.376;7.148;2023-08-31T00:21:47;11.00;;;5.93;;
10277;SDS011;5184;51.376;7.148;2023-08-31T00:24:14;7.23;;;4.97;;
10277;SDS011;5184;51.376;7.148;2023-08-31T00:26:42;6.30;;;4.43;;
10277;SDS011;5184;51.376;7.148;2023-08-31T00:29:09;7.37;;;4.97;;
10277;SDS011;5184;51.376;7.148;2023-08-31T00:31:35;8.03;;;4.50;;
10277;SDS011;5184;51.376;7.148;2023-08-31T00:34:01;8.57;;;5.40;;
10277;SDS011;5184;51.376;7.148;2023-08-31T00:36:29;10.43;;;4.70;;
10277;SDS011;5184;51.376;7.148;2023-08-31T00:38:55;6.63;;;5.37;;
10277;SDS011;5184;51.376;7.148;2023-08-31T00:41:22;9.37;;;5.30;;
10277;SDS011;5184;51.376;7.148;2023-08-31T00:43:49;7.27;;;4.77;;
10277;SDS011;5184;51.376;7.148;2023-08-31T00:46:15;7.37;;;5.10;;
10277;SDS011;5184;51.376;7.148;2023-08-31T00:48:42;10.33;;;4.97;;
10277;SDS011;5184;51.376;7.148;2023-08-31T00:51:08;6.83;;;4.77;;
10277;SDS011;5184;51.376;7.148;2023-08-31T00:53:35;5.30;;;4.40;;
10277;SDS011;5184;51.376;7.148;2023-08-31T00:56:02;8.47;;;5.03;;
10277;SDS011;5184;51.376;7.148;2023-08-31T00:58:28;7.40;;;4.50;;
10277;SDS011;5184;51.376;7.148;2023-08-31T01:01:03;8.37;;;4.97;;
10277;SDS011;5184;51.376;7.148;2023-08-31T01:03:35;6.40;;;4.83;;
10277;SDS011;5184;51.376;7.148;2023-08-31T01:06:16;6.77;;;5.00;;
10277;SDS011;5184;51.376;7.148;2023-08-31T01:09:05;7.57;;;4.60;;
10277;SDS011;5184;51.376;7.148;2023-08-31T01:11:31;10.97;;;5.17;;
10277;SDS011;5184;51.376;7.148;2023-08-31T01:14:11;8.87;;;5.17;;
10277;SDS011;5184;51.376;7.148;2023-08-31T01:16:25;7.87;;;5.23;;
10277;SDS011;5184;51.376;7.148;2023-08-31T01:18:52;9.33;;;5.60;;
10277;SDS011;5184;51.376;7.148;2023-08-31T01:21:22;8.33;;;5.00;;
10277;SDS011;5184;51.376;7.148;2023-08-31T01:23:50;8.97;;;5.70;;
10277;SDS011;5184;51.376;7.148;2023-08-31T01:26:17;9.13;;;5.63;;
10277;SDS011;5184;51.376;7.148;2023-08-31T01:28:43;11.20;;;5.67;;
10277;SDS011;5184;51.376;7.148;2023-08-31T01:31:10;8.33;;;5.10;;
10277;SDS011;5184;51.376;7.148;2023-08-31T01:33:37;9.03;;;5.60;;
10277;SDS011;5184;51.376;7.148;2023-08-31T01:36:04;7.03;;;5.20;;
10277;SDS011;5184;51.376;7.148;2023-08-31T01:38:30;8.33;;;5.30;;
10277;SDS011;5184;51.376;7.148;2023-08-31T01:41:00;7.33;;;5.43;;
10277;SDS011;5184;51.376;7.148;2023-08-31T01:43:26;8.50;;;5.70;;
10277;SDS011;5184;51.376;7.148;2023-08-31T01:45:53;8.93;;;5.27;;
10277;SDS011;5184;51.376;7.148;2023-08-31T01:48:21;7.63;;;5.10;;
10277;SDS011;5184;51.376;7.148;2023-08-31T01:50:48;8.17;;;5.30;;
10277;SDS011;5184;51.376;7.148;2023-08-31T01:53:14;7.53;;;5.13;;
10277;SDS011;5184;51.376;7.148;2023-08-31T01:55:41;8.03;;;5.13;;
10277;SDS011;5184;51.376;7.148;2023-08-31T01:58:08;8.20;;;5.10;;
10277;SDS011;5184;51.376;7.148;2023-08-31T02:00:34;8.20;;;5.10;;
10277;SDS011;5184;51.376;7.148;2023-08-31T02:03:01;6.60;;;5.17;;
10277;SDS011;5184;51.376;7.148;2023-08-31T02:05:28;6.67;;;4.93;;
10277;SDS011;5184;51.376;7.148;2023-08-31T02:07:56;7.87;;;5.70;;
10277;SDS011;5184;51.376;7.148;2023-08-31T02:10:23;8.37;;;5.30;;
10277;SDS011;5184;51.376;7.148;2023-08-31T02:12:50;7.37;;;4.90;;
10277;SDS011;5184;51.376;7.148;2023-08-31T02:15:16;7.17;;;5.53;;
10277;SDS011;5184;51.376;7.148;2023-08-31T02:17:43;7.23;;;5.20;;
10277;SDS011;5184;51.376;7.148;2023-08-31T02:20:10;8.27;;;5.13;;
10277;SDS011;5184;51.376;7.148;2023-08-31T02:22:38;9.27;;;5.60;;
10277;SDS011;5184;51.376;7.148;2023-08-31T02:25:05;9.20;;;5.40;;
10277;SDS011;5184;51.376;7.148;2023-08-31T02:27:32;7.17;;;5.20;;
10277;SDS011;5184;51.376;7.148;2023-08-31T02:29:59;9.80;;;5.47;;
10277;SDS011;5184;51.376;7.148;2023-08-31T02:32:26;6.40;;;5.33;;
10277;SDS011;5184;51.376;7.148;2023-08-31T02:34:53;7.93;;;6.10;;
10277;SDS011;5184;51.376;7.148;2023-08-31T02:37:19;8.37;;;5.80;;
10277;SDS011;5184;51.376;7.148;2023-08-31T02:39:46;8.73;;;6.13;;
10277;SDS011;5184;51.376;7.148;2023-08-31T02:42:13;9.60;;;6.20;;
10277;SDS011;5184;51.376;7.148;2023-08-31T02:44:40;6.77;;;5.90;;
10277;SDS011;5184;51.376;7.148;2023-08-31T02:47:06;6.40;;;5.50;;
10277;SDS011;5184;51.376;7.148;2023-08-31T02:49:33;7.63;;;5.60;;
10277;SDS011;5184;51.376;7.148;2023-08-31T02:51:59;9.97;;;5.70;;
10277;SDS011;5184;51.376;7.148;2023-08-31T02:54:26;9.03;;;5.77;;
10277;SDS011;5184;51.376;7.148;2023-08-31T02:56:53;10.27;;;6.10;;
10277;SDS011;5184;51.376;7.148;2023-08-31T02:59:21;8.67;;;5.73;;
10277;SDS011;5184;51.376;7.148;2023-08-31T03:01:48;7.07;;;5.90;;
10277;SDS011;5184;51.376;7.148;2023-08-31T03:04:14;6.83;;;5.63;;
10277;SDS011;5184;51.376;7.148;2023-08-31T03:06:41;8.97;;;6.43;;
10277;SDS011;5184;51.376;7.148;2023-08-31T03:09:08;8.10;;;5.90;;
10277;SDS011;5184;51.376;7.148;2023-08-31T03:11:35;8.67;;;6.00;;
10277;SDS011;5184;51.376;7.148;2023-08-31T03:14:03;8.40;;;5.87;;
10277;SDS011;5184;51.376;7.148;2023-08-31T03:16:30;7.77;;;5.57;;
10277;SDS011;5184;51.376;7.148;2023-08-31T03:18:57;7.40;;;6.07;;
10277;SDS011;5184;51.376;7.148;2023-08-31T03:21:24;10.47;;;6.57;;
10277;SDS011;5184;51.376;7.148;2023-08-31T03:23:51;8.40;;;6.10;;
10277;SDS011;5184;51.376;7.148;2023-08-31T03:26:17;9.17;;;5.77;;
10277;SDS011;5184;51.376;7.148;2023-08-31T03:28:45;7.53;;;6.00;;
10277;SDS011;5184;51.376;7.148;2023-08-31T03:31:12;8.57;;;5.67;;
10277;SDS011;5184;51.376;7.148;2023-08-31T03:33:38;7.57;;;5.63;;
10277;SDS011;5184;51.376;7.148;2023-08-31T03:36:05;8.40;;;5.77;;
10277;SDS011;5184;51.376;7.148;2023-08-31T03:38:32;8.17;;;6.23;;
10277;SDS011;5184;51.376;7.148;2023-08-31T03:40:58;10.20;;;6.87;;
10277;SDS011;5184;51.376;7.148;2023-08-31T03:43:25;7.20;;;6.50;;
10277;SDS011;5184;51.376;7.148;2023-08-31T03:45:54;9.53;;;6.90;;
10277;SDS011;5184;51.376;7.148;2023-08-31T03:48:20;10.17;;;6.83;;
10277;SDS011;5184;51.376;7.148;2023-08-31T03:50:49;9.37;;;7.30;;
10277;SDS011;5184;51.376;7.148;2023-08-31T03:53:15;9.60;;;8.20;;
10277;SDS011;5184;51.376;7.148;2023-08-31T03:55:41;11.93;;;8.23;;
10277;SDS011;5184;51.376;7.148;2023-08-31T03:58:08;10.20;;;9.13;;
10277;SDS011;5184;51.376;7.148;2023-08-31T04:00:34;11.23;;;9.13;;
10277;SDS011;5184;51.376;7.148;2023-08-31T04:03:01;10.10;;;9.10;;
10277;SDS011;5184;51.376;7.148;2023-08-31T04:05:31;10.83;;;9.67;;
10277;SDS011;5184;51.376;7.148;2023-08-31T04:07:56;11.33;;;9.40;;
10277;SDS011;5184;51.376;7.148;2023-08-31T04:10:22;10.50;;;8.90;;
10277;SDS011;5184;51.376;7.148;2023-08-31T04:12:49;15.50;;;11.33;;
10277;SDS011;5184;51.376;7.148;2023-08-31T04:15:16;13.80;;;11.17;;
10277;SDS011;5184;51.376;7.148;2023-08-31T04:17:42;12.60;;;10.63;;
10277;SDS011;5184;51.376;7.148;2023-08-31T04:20:09;12.87;;;10.73;;
10277;SDS011;5184;51.376;7.148;2023-08-31T04:22:36;12.50;;;10.00;;
10277;SDS011;5184;51.376;7.148;2023-08-31T04:25:03;12.43;;;11.13;;
10277;SDS011;5184;51.376;7.148;2023-08-31T04:27:30;15.03;;;11.47;;
10277;SDS011;5184;51.376;7.148;2023-08-31T04:29:58;13.13;;;10.87;;
10277;SDS011;5184;51.376;7.148;2023-08-31T04:32:24;13.50;;;11.07;;
10277;SDS011;5184;51.376;7.148;2023-08-31T04:34:51;11.77;;;10.50;;
10277;SDS011;5184;51.376;7.148;2023-08-31T04:37:17;12.80;;;11.23;;
10277;SDS011;5184;51.376;7.148;2023-08-31T04:39:44;14.13;;;11.03;;
10277;SDS011;5184;51.376;7.148;2023-08-31T04:42:11;12.67;;;11.37;;
10277;SDS011;5184;51.376;7.148;2023-08-31T04:44:38;13.93;;;11.23;;
10277;SDS011;5184;51.376;7.148;2023-08-31T04:47:05;14.43;;;12.53;;
10277;SDS011;5184;51.376;7.148;2023-08-31T04:49:31;15.73;;;12.10;;
10277;SDS011;5184;51.376;7.148;2023-08-31T04:51:59;13.43;;;12.00;;
10277;SDS011;5184;51.376;7.148;2023-08-31T04:54:26;17.20;;;12.93;;
10277;SDS011;5184;51.376;7.148;2023-08-31T04:56:53;14.30;;;12.20;;
10277;SDS011;5184;51.376;7.148;2023-08-31T04:59:19;15.70;;;13.47;;
10277;SDS011;5184;51.376;7.148;2023-08-31T05:01:46;14.77;;;12.23;;
10277;SDS011;5184;51.376;7.148;2023-08-31T05:04:13;14.80;;;13.17;;
10277;SDS011;5184;51.376;7.148;2023-08-31T05:06:40;18.20;;;14.10;;
10277;SDS011;5184;51.376;7.148;2023-08-31T05:09:06;15.07;;;13.47;;
10277;SDS011;5184;51.376;7.148;2023-08-31T05:11:33;16.83;;;14.07;;
10277;SDS011;5184;51.376;7.148;2023-08-31T05:14:00;16.97;;;13.97;;
10277;SDS011;5184;51.376;7.148;2023-08-31T05:16:26;16.97;;;14.80;;
10277;SDS011;5184;51.376;7.148;2023-08-31T05:18:54;17.33;;;14.60;;
10277;SDS011;5184;51.376;7.148;2023-08-31T05:21:21;17.83;;;14.87;;
10277;SDS011;5184;51.376;7.148;2023-08-31T05:23:48;19.53;;;15.80;;
10277;SDS011;5184;51.376;7.148;2023-08-31T05:26:15;19.03;;;15.30;;
10277;SDS011;5184;51.376;7.148;2023-08-31T05:28:41;17.13;;;14.87;;
10277;SDS011;5184;51.376;7.148;2023-08-31T05:31:08;16.73;;;14.93;;
10277;SDS011;5184;51.376;7.148;2023-08-31T05:33:35;18.40;;;14.40;;
10277;SDS011;5184;51.376;7.148;2023-08-31T05:36:02;17.43;;;14.27;;
10277;SDS011;5184;51.376;7.148;2023-08-31T05:38:30;16.70;;;14.77;;
10277;SDS011;5184;51.376;7.148;2023-08-31T05:43:34;16.70;;;14.90;;
10277;SDS011;5184;51.376;7.148;2023-08-31T05:46:00;17.07;;;14.07;;
10277;SDS011;5184;51.376;7.148;2023-08-31T05:48:27;16.17;;;14.57;;
10277;SDS011;5184;51.376;7.148;2023-08-31T05:50:54;15.47;;;13.87;;
10277;SDS011;5184;51.376;7.148;2023-08-31T05:53:20;14.53;;;13.03;;
10277;SDS011;5184;51.376;7.148;2023-08-31T05:55:47;13.60;;;12.20;;
10277;SDS011;5184;51.376;7.148;2023-08-31T05:58:14;12.40;;;11.30;;
10277;SDS011;5184;51.376;7.148;2023-08-31T06:00:41;12.03;;;10.83;;
10277;SDS011;5184;51.376;7.148;2023-08-31T06:03:08;14.97;;;10.27;;
10277;SDS011;5184;51.376;7.148;2023-08-31T06:05:35;13.83;;;11.30;;
10277;SDS011;5184;51.376;7.148;2023-08-31T06:08:02;11.10;;;10.00;;
10277;SDS011;5184;51.376;7.148;2023-08-31T06:10:29;11.03;;;9.87;;
10277;SDS011;5184;51.376;7.148;2023-08-31T06:12:57;12.83;;;10.40;;
10277;SDS011;5184;51.376;7.148;2023-08-31T06:15:24;10.80;;;9.67;;
10277;SDS011;5184;51.376;7.148;2023-08-31T06:17:50;11.73;;;10.20;;
10277;SDS011;5184;51.376;7.148;2023-08-31T06:20:17;13.03;;;10.53;;
10277;SDS011;5184;51.376;7.148;2023-08-31T06:22:44;13.50;;;10.40;;
10277;SDS011;5184;51.376;7.148;2023-08-31T06:25:12;12.17;;;10.10;;
10277;SDS011;5184;51.376;7.148;2023-08-31T06:27:39;10.77;;;9.73;;
10277;SDS011;5184;51.376;7.148;2023-08-31T06:30:07;11.00;;;9.90;;
10277;SDS011;5184;51.376;7.148;2023-08-31T06:32:34;10.90;;;9.90;;
10277;SDS011;5184;51.376;7.148;2023-08-31T06:35:01;10.63;;;9.63;;
10277;SDS011;5184;51.376;7.148;2023-08-31T06:37:28;9.93;;;8.97;;
10277;SDS011;5184;51.376;7.148;2023-08-31T06:39:55;12.20;;;9.80;;
10277;SDS011;5184;51.376;7.148;2023-08-31T06:42:22;10.80;;;9.27;;
10277;SDS011;5184;51.376;7.148;2023-08-31T06:44:48;10.50;;;9.40;;
10277;SDS011;5184;51.376;7.148;2023-08-31T06:47:15;9.67;;;8.70;;
10277;SDS011;5184;51.376;7.148;2023-08-31T06:49:42;8.97;;;8.07;;
10277;SDS011;5184;51.376;7.148;2023-08-31T06:52:08;9.40;;;8.50;;
10277;SDS011;5184;51.376;7.148;2023-08-31T06:54:35;10.83;;;7.20;;
10277;SDS011;5184;51.376;7.148;2023-08-31T06:57:02;9.07;;;8.13;;
10277;SDS011;5184;51.376;7.148;2023-08-31T06:59:29;9.73;;;7.50;;
10277;SDS011;5184;51.376;7.148;2023-08-31T07:01:56;8.87;;;7.37;;
10277;SDS011;5184;51.376;7.148;2023-08-31T07:04:23;7.43;;;6.60;;
10277;SDS011;5184;51.376;7.148;2023-08-31T07:06:49;9.27;;;6.50;;
10277;SDS011;5184;51.376;7.148;2023-08-31T07:09:16;8.87;;;6.47;;
10277;SDS011;5184;51.376;7.148;2023-08-31T07:11:43;9.23;;;7.00;;
10277;SDS011;5184;51.376;7.148;2023-08-31T07:14:09;7.03;;;6.27;;
10277;SDS011;5184;51.376;7.148;2023-08-31T07:16:37;10.53;;;6.33;;
10277;SDS011;5184;51.376;7.148;2023-08-31T07:19:04;7.37;;;5.53;;
10277;SDS011;5184;51.376;7.148;2023-08-31T07:21:30;7.00;;;6.30;;
10277;SDS011;5184;51.376;7.148;2023-08-31T07:23:57;6.90;;;6.07;;
10277;SDS011;5184;51.376;7.148;2023-08-31T07:26:24;8.17;;;6.00;;
10277;SDS011;5184;51.376;7.148;2023-08-31T07:28:50;6.10;;;5.23;;
10277;SDS011;5184;51.376;7.148;2023-08-31T07:31:17;8.47;;;5.30;;
10277;SDS011;5184;51.376;7.148;2023-08-31T07:33:44;8.53;;;5.87;;
10277;SDS011;5184;51.376;7.148;2023-08-31T07:36:12;9.90;;;5.50;;
10277;SDS011;5184;51.376;7.148;2023-08-31T07:38:38;5.67;;;4.90;;
10277;SDS011;5184;51.376;7.148;2023-08-31T07:41:06;8.07;;;5.33;;
10277;SDS011;5184;51.376;7.148;2023-08-31T07:43:34;8.13;;;5.23;;
10277;SDS011;5184;51.376;7.148;2023-08-31T07:46:01;6.13;;;4.90;;
10277;SDS011;5184;51.376;7.148;2023-08-31T07:48:28;7.53;;;4.50;;
10277;SDS011;5184;51.376;7.148;2023-08-31T07:50:54;6.17;;;4.97;;
10277;SDS011;5184;51.376;7.148;2023-08-31T07:53:21;5.47;;;4.87;;
10277;SDS011;5184;51.376;7.148;2023-08-31T07:55:52;5.70;;;4.33;;
10277;SDS011;5184;51.376;7.148;2023-08-31T07:58:20;8.43;;;4.90;;
10277;SDS011;5184;51.376;7.148;2023-08-31T08:00:47;6.47;;;4.37;;
10277;SDS011;5184;51.376;7.148;2023-08-31T08:03:13;6.93;;;4.23;;
10277;SDS011;5184;51.376;7.148;2023-08-31T08:05:40;6.13;;;4.13;;
10277;SDS011;5184;51.376;7.148;2023-08-31T08:08:07;7.17;;;4.50;;
10277;SDS011;5184;51.376;7.148;2023-08-31T08:10:34;6.73;;;4.43;;
10277;SDS011;5184;51.376;7.148;2023-08-31T08:13:00;4.87;;;4.23;;
10277;SDS011;5184;51.376;7.148;2023-08-31T08:15:27;6.03;;;4.03;;
10277;SDS011;5184;51.376;7.148;2023-08-31T08:17:54;7.10;;;4.00;;
10277;SDS011;5184;51.376;7.148;2023-08-31T08:20:20;6.20;;;4.23;;
10277;SDS011;5184;51.376;7.148;2023-08-31T08:22:47;6.43;;;4.10;;
10277;SDS011;5184;51.376;7.148;2023-08-31T08:25:14;8.03;;;4.27;;
10277;SDS011;5184;51.376;7.148;2023-08-31T08:27:40;4.70;;;4.10;;
10277;SDS011;5184;51.376;7.148;2023-08-31T08:30:07;7.60;;;4.20;;
10277;SDS011;5184;51.376;7.148;2023-08-31T08:32:33;4.60;;;3.80;;
10277;SDS011;5184;51.376;7.148;2023-08-31T08:35:01;5.33;;;3.63;;
10277;SDS011;5184;51.376;7.148;2023-08-31T08:37:28;5.67;;;3.47;;
10277;SDS011;5184;51.376;7.148;2023-08-31T08:39:55;4.90;;;3.83;;
10277;SDS011;5184;51.376;7.148;2023-08-31T08:42:23;5.30;;;3.67;;
10277;SDS011;5184;51.376;7.148;2023-08-31T08:44:49;5.57;;;3.70;;
10277;SDS011;5184;51.376;7.148;2023-08-31T08:47:16;4.70;;;3.53;;
10277;SDS011;5184;51.376;7.148;2023-08-31T08:49:43;4.87;;;3.83;;
10277;SDS011;5184;51.376;7.148;2023-08-31T08:52:10;7.67;;;3.70;;
10277;SDS011;5184;51.376;7.148;2023-08-31T08:54:37;6.77;;;3.60;;
10277;SDS011;5184;51.376;7.148;2023-08-31T08:57:04;5.20;;;3.33;;
10277;SDS011;5184;51.376;7.148;2023-08-31T08:59:30;7.00;;;3.63;;
10277;SDS011;5184;51.376;7.148;2023-08-31T09:01:56;5.83;;;3.37;;
10277;SDS011;5184;51.376;7.148;2023-08-31T09:04:23;3.87;;;2.97;;
10277;SDS011;5184;51.376;7.148;2023-08-31T09:06:51;5.40;;;3.57;;
10277;SDS011;5184;51.376;7.148;2023-08-31T09:09:17;6.97;;;3.10;;
10277;SDS011;5184;51.376;7.148;2023-08-31T09:11:44;3.77;;;2.80;;
10277;SDS011;5184;51.376;7.148;2023-08-31T09:14:15;4.10;;;2.70;;
10277;SDS011;5184;51.376;7.148;2023-08-31T09:16:45;5.30;;;3.00;;
10277;SDS011;5184;51.376;7.148;2023-08-31T09:19:18;6.73;;;3.10;;
10277;SDS011;5184;51.376;7.148;2023-08-31T09:21:44;3.50;;;2.73;;
10277;SDS011;5184;51.376;7.148;2023-08-31T09:24:11;4.20;;;3.00;;
10277;SDS011;5184;51.376;7.148;2023-08-31T09:26:38;3.77;;;2.70;;
10277;SDS011;5184;51.376;7.148;2023-08-31T09:29:06;6.10;;;3.23;;
10277;SDS011;5184;51.376;7.148;2023-08-31T09:31:32;4.30;;;3.30;;
10277;SDS011;5184;51.376;7.148;2023-08-31T09:33:59;5.90;;;2.90;;
10277;SDS011;5184;51.376;7.148;2023-08-31T09:36:25;6.87;;;3.37;;
10277;SDS011;5184;51.376;7.148;2023-08-31T09:38:52;4.57;;;2.77;;
10277;SDS011;5184;51.376;7.148;2023-08-31T09:41:18;3.97;;;2.60;;
10277;SDS011;5184;51.376;7.148;2023-08-31T09:43:45;5.67;;;2.67;;
10277;SDS011;5184;51.376;7.148;2023-08-31T09:46:11;6.20;;;2.80;;
10277;SDS011;5184;51.376;7.148;2023-08-31T09:48:38;3.87;;;2.60;;
10277;SDS011;5184;51.376;7.148;2023-08-31T09:51:07;5.20;;;2.60;;
10277;SDS011;5184;51.376;7.148;2023-08-31T09:53:33;5.07;;;2.70;;
10277;SDS011;5184;51.376;7.148;2023-08-31T09:55:59;5.03;;;2.80;;
10277;SDS011;5184;51.376;7.148;2023-08-31T09:58:26;4.13;;;2.80;;
10277;SDS011;5184;51.376;7.148;2023-08-31T10:00:53;3.90;;;2.50;;
10277;SDS011;5184;51.376;7.148;2023-08-31T10:03:20;5.80;;;2.63;;
10277;SDS011;5184;51.376;7.148;2023-08-31T10:05:47;5.20;;;2.30;;
10277;SDS011;5184;51.376;7.148;2023-08-31T10:08:14;4.70;;;2.33;;
10277;SDS011;5184;51.376;7.148;2023-08-31T10:10:40;4.63;;;2.37;;
10277;SDS011;5184;51.376;7.148;2023-08-31T10:13:07;4.67;;;2.43;;
10277;SDS011;5184;51.376;7.148;2023-08-31T10:15:35;4.23;;;2.50;;
10277;SDS011;5184;51.376;7.148;2023-08-31T10:18:02;2.27;;;1.90;;
10277;SDS011;5184;51.376;7.148;2023-08-31T10:20:28;3.17;;;1.97;;
10277;SDS011;5184;51.376;7.148;2023-08-31T10:22:55;4.07;;;2.17;;
10277;SDS011;5184;51.376;7.148;2023-08-31T10:25:21;3.20;;;1.93;;
10277;SDS011;5184;51.376;7.148;2023-08-31T10:27:48;2.57;;;1.90;;
10277;SDS011;5184;51.376;7.148;2023-08-31T10:30:15;3.17;;;1.80;;
10277;SDS011;5184;51.376;7.148;2023-08-31T10:33:31;4.07;;;2.20;;
10277;SDS011;5184;51.376;7.148;2023-08-31T10:35:49;3.63;;;1.90;;
10277;SDS011;5184;51.376;7.148;2023-08-31T10:38:23;3.80;;;2.03;;
10277;SDS011;5184;51.376;7.148;2023-08-31T10:43:26;3.93;;;2.33;;
10277;SDS011;5184;51.376;7.148;2023-08-31T10:45:53;4.40;;;2.30;;
10277;SDS011;5184;51.376;7.148;2023-08-31T10:48:20;3.87;;;2.20;;
10277;SDS011;5184;51.376;7.148;2023-08-31T10:50:47;4.80;;;2.40;;
10277;SDS011;5184;51.376;7.148;2023-08-31T10:53:14;3.70;;;2.30;;
10277;SDS011;5184;51.376;7.148;2023-08-31T10:58:16;3.47;;;2.33;;
10277;SDS011;5184;51.376;7.148;2023-08-31T11:00:46;4.00;;;2.40;;
10277;SDS011;5184;51.376;7.148;2023-08-31T11:03:12;4.80;;;2.60;;
10277;SDS011;5184;51.376;7.148;2023-08-31T11:05:50;4.40;;;2.50;;
10277;SDS011;5184;51.376;7.148;2023-08-31T11:08:22;5.37;;;2.47;;
10277;SDS011;5184;51.376;7.148;2023-08-31T11:10:51;5.67;;;2.40;;
10277;SDS011;5184;51.376;7.148;2023-08-31T11:13:18;5.40;;;2.57;;
10277;SDS011;5184;51.376;7.148;2023-08-31T11:15:46;6.50;;;2.20;;
10277;SDS011;5184;51.376;7.148;2023-08-31T11:18:12;3.23;;;2.17;;
10277;SDS011;5184;51.376;7.148;2023-08-31T11:20:39;6.43;;;2.73;;
10277;SDS011;5184;51.376;7.148;2023-08-31T11:23:05;5.67;;;2.50;;
10277;SDS011;5184;51.376;7.148;2023-08-31T11:25:32;4.30;;;2.30;;
10277;SDS011;5184;51.376;7.148;2023-08-31T11:27:59;3.70;;;1.97;;
10277;SDS011;5184;51.376;7.148;2023-08-31T11:30:27;5.10;;;2.60;;
10277;SDS011;5184;51.376;7.148;2023-08-31T11:32:53;3.97;;;2.60;;
10277;SDS011;5184;51.376;7.148;2023-08-31T11:35:20;4.30;;;2.80;;
10277;SDS011;5184;51.376;7.148;2023-08-31T11:37:49;5.77;;;2.10;;
10277;SDS011;5184;51.376;7.148;2023-08-31T11:40:14;7.60;;;2.50;;
10277;SDS011;5184;51.376;7.148;2023-08-31T11:42:41;3.77;;;2.57;;
10277;SDS011;5184;51.376;7.148;2023-08-31T11:45:09;3.90;;;2.40;;
10277;SDS011;5184;51.376;7.148;2023-08-31T11:47:35;6.40;;;2.70;;
10277;SDS011;5184;51.376;7.148;2023-08-31T11:50:02;3.30;;;2.60;;
10277;SDS011;5184;51.376;7.148;2023-08-31T11:52:30;3.70;;;2.30;;
10277;SDS011;5184;51.376;7.148;2023-08-31T11:54:56;3.87;;;2.40;;
10277;SDS011;5184;51.376;7.148;2023-08-31T11:57:25;3.80;;;2.17;;
10277;SDS011;5184;51.376;7.148;2023-08-31T11:59:52;4.13;;;2.40;;
10277;SDS011;5184;51.376;7.148;2023-08-31T12:02:19;3.73;;;2.00;;
10277;SDS011;5184;51.376;7.148;2023-08-31T12:04:45;2.77;;;2.13;;
10277;SDS011;5184;51.376;7.148;2023-08-31T12:07:19;3.63;;;2.13;;
10277;SDS011;5184;51.376;7.148;2023-08-31T12:09:45;4.73;;;2.10;;
10277;SDS011;5184;51.376;7.148;2023-08-31T12:12:13;3.80;;;1.93;;
10277;SDS011;5184;51.376;7.148;2023-08-31T12:14:40;4.33;;;2.30;;
10277;SDS011;5184;51.376;7.148;2023-08-31T12:17:08;5.13;;;2.60;;
10277;SDS011;5184;51.376;7.148;2023-08-31T12:19:36;4.60;;;2.33;;
10277;SDS011;5184;51.376;7.148;2023-08-31T12:22:02;4.83;;;2.50;;
10277;SDS011;5184;51.376;7.148;2023-08-31T12:24:29;3.67;;;2.30;;
10277;SDS011;5184;51.376;7.148;2023-08-31T12:26:56;2.77;;;2.43;;
10277;SDS011;5184;51.376;7.148;2023-08-31T12:29:22;3.73;;;1.97;;
10277;SDS011;5184;51.376;7.148;2023-08-31T12:31:49;3.33;;;2.40;;
10277;SDS011;5184;51.376;7.148;2023-08-31T12:34:15;4.33;;;2.77;;
10277;SDS011;5184;51.376;7.148;2023-08-31T12:36:43;6.07;;;2.50;;
10277;SDS011;5184;51.376;7.148;2023-08-31T12:39:10;3.03;;;2.20;;
10277;SDS011;5184;51.376;7.148;2023-08-31T12:41:38;5.93;;;2.47;;
10277;SDS011;5184;51.376;7.148;2023-08-31T12:44:05;4.47;;;2.03;;
10277;SDS011;5184;51.376;7.148;2023-08-31T12:46:31;3.40;;;1.87;;
10277;SDS011;5184;51.376;7.148;2023-08-31T12:48:59;3.97;;;2.03;;
10277;SDS011;5184;51.376;7.148;2023-08-31T12:51:25;4.07;;;2.57;;
10277;SDS011;5184;51.376;7.148;2023-08-31T12:53:51;3.60;;;2.10;;
10277;SDS011;5184;51.376;7.148;2023-08-31T12:56:19;4.37;;;2.23;;
10277;SDS011;5184;51.376;7.148;2023-08-31T12:58:49;2.90;;;2.00;;
10277;SDS011;5184;51.376;7.148;2023-08-31T13:01:17;5.00;;;2.17;;
10277;SDS011;5184;51.376;7.148;2023-08-31T13:03:44;2.27;;;2.00;;
10277;SDS011;5184;51.376;7.148;2023-08-31T13:06:11;2.27;;;1.83;;
10277;SDS011;5184;51.376;7.148;2023-08-31T13:08:38;5.53;;;2.60;;
10277;SDS011;5184;51.376;7.148;2023-08-31T13:11:04;2.83;;;2.07;;
10277;SDS011;5184;51.376;7.148;2023-08-31T13:13:31;3.80;;;2.10;;
10277;SDS011;5184;51.376;7.148;2023-08-31T13:15:57;3.53;;;2.10;;
10277;SDS011;5184;51.376;7.148;2023-08-31T13:18:24;4.60;;;2.53;;
10277;SDS011;5184;51.376;7.148;2023-08-31T13:20:51;3.60;;;2.00;;
10277;SDS011;5184;51.376;7.148;2023-08-31T13:23:17;4.73;;;2.30;;
10277;SDS011;5184;51.376;7.148;2023-08-31T13:25:45;4.93;;;2.20;;
10277;SDS011;5184;51.376;7.148;2023-08-31T13:28:12;3.80;;;2.23;;
10277;SDS011;5184;51.376;7.148;2023-08-31T13:30:39;3.90;;;2.10;;
10277;SDS011;5184;51.376;7.148;2023-08-31T13:33:07;2.90;;;2.20;;
10277;SDS011;5184;51.376;7.148;2023-08-31T13:35:33;4.80;;;2.50;;
10277;SDS011;5184;51.376;7.148;2023-08-31T13:38:00;3.63;;;2.40;;
10277;SDS011;5184;51.376;7.148;2023-08-31T13:40:26;4.00;;;2.47;;
10277;SDS011;5184;51.376;7.148;2023-08-31T13:42:54;3.47;;;2.10;;
10277;SDS011;5184;51.376;7.148;2023-08-31T13:45:23;4.43;;;2.50;;
10277;SDS011;5184;51.376;7.148;2023-08-31T13:47:50;5.03;;;2.60;;
10277;SDS011;5184;51.376;7.148;2023-08-31T13:50:17;4.50;;;2.77;;
10277;SDS011;5184;51.376;7.148;2023-08-31T13:52:44;6.60;;;2.43;;
10277;SDS011;5184;51.376;7.148;2023-08-31T13:55:10;4.57;;;2.40;;
10277;SDS011;5184;51.376;7.148;2023-08-31T13:57:38;4.00;;;2.17;;
10277;SDS011;5184;51.376;7.148;2023-08-31T14:00:04;4.10;;;2.37;;
10277;SDS011;5184;51.376;7.148;2023-08-31T14:02:31;3.97;;;2.43;;
10277;SDS011;5184;51.376;7.148;2023-08-31T14:04:59;5.03;;;2.20;;
10277;SDS011;5184;51.376;7.148;2023-08-31T14:07:26;4.17;;;2.10;;
10277;SDS011;5184;51.376;7.148;2023-08-31T14:09:53;4.90;;;2.30;;
10277;SDS011;5184;51.376;7.148;2023-08-31T14:12:21;4.93;;;2.20;;
10277;SDS011;5184;51.376;7.148;2023-08-31T14:14:48;4.30;;;2.60;;
10277;SDS011;5184;51.376;7.148;2023-08-31T14:17:15;6.70;;;2.20;;
10277;SDS011;5184;51.376;7.148;2023-08-31T14:19:41;5.03;;;2.40;;
10277;SDS011;5184;51.376;7.148;2023-08-31T14:22:08;3.83;;;2.23;;
10277;SDS011;5184;51.376;7.148;2023-08-31T14:24:35;3.03;;;2.00;;
10277;SDS011;5184;51.376;7.148;2023-08-31T14:27:01;3.50;;;2.00;;
10277;SDS011;5184;51.376;7.148;2023-08-31T14:29:29;3.00;;;1.90;;
10277;SDS011;5184;51.376;7.148;2023-08-31T14:31:56;3.93;;;1.80;;
10277;SDS011;5184;51.376;7.148;2023-08-31T14:34:23;4.27;;;1.97;;
10277;SDS011;5184;51.376;7.148;2023-08-31T14:36:51;3.73;;;1.70;;
10277;SDS011;5184;51.376;7.148;2023-08-31T14:39:17;5.87;;;2.30;;
10277;SDS011;5184;51.376;7.148;2023-08-31T14:41:44;2.50;;;1.93;;
10277;SDS011;5184;51.376;7.148;2023-08-31T14:44:10;2.83;;;2.00;;
10277;SDS011;5184;51.376;7.148;2023-08-31T14:46:37;3.20;;;2.07;;
10277;SDS011;5184;51.376;7.148;2023-08-31T14:49:04;3.07;;;2.00;;
10277;SDS011;5184;51.376;7.148;2023-08-31T14:51:30;4.37;;;2.60;;
10277;SDS011;5184;51.376;7.148;2023-08-31T14:53:57;5.20;;;3.50;;
10277;SDS011;5184;51.376;7.148;2023-08-31T14:56:24;4.33;;;2.83;;
10277;SDS011;5184;51.376;7.148;2023-08-31T14:58:51;4.67;;;3.50;;
10277;SDS011;5184;51.376;7.148;2023-08-31T15:01:19;6.27;;;3.57;;
10277;SDS011;5184;51.376;7.148;2023-08-31T15:03:45;4.40;;;3.27;;